sensor_id;sensor_type;location;lat;lon;timestamp;pressure;altitude;pressure_sealevel;temperature;humidity
23166;BME280;11751;42.700;24.170;2023-02-12T00:01:15;94776.47;;;-2.93;nan
23166;BME280;11751;42.700;24.170;2023-02-12T00:03:40;94761.41;;;-2.89;nan
23166;BME280;11751;42.700;24.170;2023-02-12T00:06:08;94773.59;;;-2.99;nan
23166;BME280;11751;42.700;24.170;2023-02-12T00:08:34;94771.31;;;-2.82;nan
23166;BME280;11751;42.700;24.170;2023-02-12T00:11:15;94765.66;;;-2.88;nan
23166;BME280;11751;42.700;24.170;2023-02-12T00:13:41;94762.31;;;-2.92;nan
23166;BME280;11751;42.700;24.170;2023-02-12T00:16:09;94725.47;;;-3.09;nan
23166;BME280;11751;42.700;24.170;2023-02-12T00:18:35;94764.28;;;-2.83;nan
23166;BME280;11751;42.700;24.170;2023-02-12T00:21:01;94763.84;;;-2.91;nan
23166;BME280;11751;42.700;24.170;2023-02-12T00:23:27;94777.97;;;-2.92;nan
23166;BME280;11751;42.700;24.170;2023-02-12T00:25:52;94769.75;;;-2.92;nan
23166;BME280;11751;42.700;24.170;2023-02-12T00:28:18;94768.69;;;-2.95;nan
23166;BME280;11751;42.700;24.170;2023-02-12T00:30:43;94773.72;;;-2.93;nan
23166;BME280;11751;42.700;24.170;2023-02-12T00:33:09;94760.47;;;-3.04;nan
23166;BME280;11751;42.700;24.170;2023-02-12T00:35:34;94758.53;;;-2.94;nan
23166;BME280;11751;42.700;24.170;2023-02-12T00:38:00;94759.84;;;-3.08;nan
23166;BME280;11751;42.700;24.170;2023-02-12T00:40:25;94755.13;;;-3.25;nan
23166;BME280;11751;42.700;24.170;2023-02-12T00:42:51;94761.84;;;-3.08;nan
23166;BME280;11751;42.700;24.170;2023-02-12T00:45:16;94766.81;;;-3.25;nan
23166;BME280;11751;42.700;24.170;2023-02-12T00:47:42;94741.44;;;-3.16;nan
23166;BME280;11751;42.700;24.170;2023-02-12T00:50:07;94748.28;;;-3.12;nan
23166;BME280;11751;42.700;24.170;2023-02-12T00:52:33;94748.59;;;-3.19;nan
23166;BME280;11751;42.700;24.170;2023-02-12T00:54:58;94743.69;;;-3.24;nan
23166;BME280;11751;42.700;24.170;2023-02-12T00:57:24;94738.66;;;-3.43;nan
23166;BME280;11751;42.700;24.170;2023-02-12T00:59:49;94754.38;;;-3.65;nan
23166;BME280;11751;42.700;24.170;2023-02-12T01:02:15;94742.84;;;-3.51;nan
23166;BME280;11751;42.700;24.170;2023-02-12T01:04:40;94741.22;;;-3.48;nan
23166;BME280;11751;42.700;24.170;2023-02-12T01:07:06;94736.66;;;-3.42;nan
23166;BME280;11751;42.700;24.170;2023-02-12T01:09:31;94734.59;;;-3.21;nan
23166;BME280;11751;42.700;24.170;2023-02-12T01:11:56;94728.47;;;-3.25;nan
23166;BME280;11751;42.700;24.170;2023-02-12T01:14:22;94726.38;;;-3.12;nan
23166;BME280;11751;42.700;24.170;2023-02-12T01:16:47;94743.56;;;-3.11;nan
23166;BME280;11751;42.700;24.170;2023-02-12T01:19:13;94728.06;;;-3.14;nan
23166;BME280;11751;42.700;24.170;2023-02-12T01:21:38;94726.38;;;-3.12;nan
23166;BME280;11751;42.700;24.170;2023-02-12T01:24:04;94726.84;;;-3.04;nan
23166;BME280;11751;42.700;24.170;2023-02-12T01:26:30;94721.06;;;-3.15;nan
23166;BME280;11751;42.700;24.170;2023-02-12T01:29:00;94707.03;;;-3.35;nan
23166;BME280;11751;42.700;24.170;2023-02-12T01:31:29;94704.13;;;-3.40;nan
23166;BME280;11751;42.700;24.170;2023-02-12T01:33:57;94700.31;;;-3.43;nan
23166;BME280;11751;42.700;24.170;2023-02-12T01:36:23;94691.00;;;-3.45;nan
23166;BME280;11751;42.700;24.170;2023-02-12T01:38:49;94687.69;;;-3.40;nan
23166;BME280;11751;42.700;24.170;2023-02-12T01:41:21;94677.97;;;-3.33;nan
23166;BME280;11751;42.700;24.170;2023-02-12T01:44:14;94689.66;;;-3.41;nan
23166;BME280;11751;42.700;24.170;2023-02-12T01:46:41;94679.47;;;-3.49;nan
23166;BME280;11751;42.700;24.170;2023-02-12T01:49:13;94667.91;;;-3.36;nan
23166;BME280;11751;42.700;24.170;2023-02-12T01:51:41;94672.19;;;-3.26;nan
23166;BME280;11751;42.700;24.170;2023-02-12T01:54:09;94678.72;;;-3.32;nan
23166;BME280;11751;42.700;24.170;2023-02-12T01:56:36;94656.06;;;-3.24;nan
23166;BME280;11751;42.700;24.170;2023-02-12T01:59:02;94667.50;;;-3.25;nan
23166;BME280;11751;42.700;24.170;2023-02-12T02:01:29;94641.47;;;-3.21;nan
23166;BME280;11751;42.700;24.170;2023-02-12T02:04:05;94641.16;;;-3.14;nan
23166;BME280;11751;42.700;24.170;2023-02-12T02:06:39;94653.03;;;-3.17;nan
23166;BME280;11751;42.700;24.170;2023-02-12T02:09:07;94666.72;;;-3.08;nan
23166;BME280;11751;42.700;24.170;2023-02-12T02:11:32;94643.91;;;-2.96;nan
23166;BME280;11751;42.700;24.170;2023-02-12T02:14:17;94646.06;;;-3.00;nan
23166;BME280;11751;42.700;24.170;2023-02-12T02:32:05;94619.03;;;-2.56;nan
23166;BME280;11751;42.700;24.170;2023-02-12T02:34:54;94622.81;;;-2.45;nan
23166;BME280;11751;42.700;24.170;2023-02-12T02:37:26;94612.47;;;-2.41;nan
23166;BME280;11751;42.700;24.170;2023-02-12T02:45:18;94626.75;;;-2.37;nan
23166;BME280;11751;42.700;24.170;2023-02-12T02:47:50;94622.94;;;-2.31;nan
23166;BME280;11751;42.700;24.170;2023-02-12T02:50:19;94606.31;;;-2.27;nan
23166;BME280;11751;42.700;24.170;2023-02-12T02:52:59;94611.19;;;-2.22;nan
23166;BME280;11751;42.700;24.170;2023-02-12T02:55:30;94614.84;;;-2.25;nan
23166;BME280;11751;42.700;24.170;2023-02-12T02:58:00;94600.78;;;-2.18;nan
23166;BME280;11751;42.700;24.170;2023-02-12T03:00:34;94603.78;;;-2.07;nan
23166;BME280;11751;42.700;24.170;2023-02-12T03:03:07;94610.91;;;-1.69;nan
23166;BME280;11751;42.700;24.170;2023-02-12T03:05:38;94609.88;;;-1.48;nan
23166;BME280;11751;42.700;24.170;2023-02-12T03:08:11;94600.94;;;-1.34;nan
23166;BME280;11751;42.700;24.170;2023-02-12T03:10:44;94578.53;;;-1.18;nan
23166;BME280;11751;42.700;24.170;2023-02-12T03:13:20;94607.97;;;-0.95;nan
23166;BME280;11751;42.700;24.170;2023-02-12T03:15:53;94594.69;;;-0.82;nan
23166;BME280;11751;42.700;24.170;2023-02-12T03:18:26;94610.94;;;-0.55;nan
23166;BME280;11751;42.700;24.170;2023-02-12T03:21:02;94582.56;;;-0.47;nan
23166;BME280;11751;42.700;24.170;2023-02-12T03:24:00;94591.13;;;-0.30;nan
23166;BME280;11751;42.700;24.170;2023-02-12T03:26:54;94589.97;;;-0.38;nan
23166;BME280;11751;42.700;24.170;2023-02-12T03:29:22;94609.88;;;-0.43;nan
23166;BME280;11751;42.700;24.170;2023-02-12T03:31:57;94586.19;;;-0.55;nan
23166;BME280;11751;42.700;24.170;2023-02-12T03:37:39;94602.69;;;-0.41;nan
23166;BME280;11751;42.700;24.170;2023-02-12T03:48:05;94580.50;;;-0.37;nan
23166;BME280;11751;42.700;24.170;2023-02-12T03:50:44;94593.66;;;-0.12;nan
23166;BME280;11751;42.700;24.170;2023-02-12T03:53:11;94585.31;;;-0.18;nan
23166;BME280;11751;42.700;24.170;2023-02-12T03:55:40;94601.88;;;0.16;nan
23166;BME280;11751;42.700;24.170;2023-02-12T03:58:08;94589.13;;;0.33;nan
23166;BME280;11751;42.700;24.170;2023-02-12T04:00:37;94609.00;;;0.43;nan
23166;BME280;11751;42.700;24.170;2023-02-12T04:03:03;94615.25;;;0.23;nan
23166;BME280;11751;42.700;24.170;2023-02-12T04:05:29;94601.13;;;0.70;nan
23166;BME280;11751;42.700;24.170;2023-02-12T04:07:56;94602.03;;;0.82;nan
23166;BME280;11751;42.700;24.170;2023-02-12T04:13:20;94598.53;;;1.01;nan
23166;BME280;11751;42.700;24.170;2023-02-12T04:16:12;94607.81;;;1.03;nan
23166;BME280;11751;42.700;24.170;2023-02-12T04:18:43;94601.00;;;0.99;nan
23166;BME280;11751;42.700;24.170;2023-02-12T04:21:11;94611.00;;;1.16;nan
23166;BME280;11751;42.700;24.170;2023-02-12T04:29:25;94641.41;;;1.47;nan
23166;BME280;11751;42.700;24.170;2023-02-12T04:34:34;94633.19;;;1.53;nan
23166;BME280;11751;42.700;24.170;2023-02-12T04:37:15;94649.75;;;1.53;nan
23166;BME280;11751;42.700;24.170;2023-02-12T04:39:43;94615.88;;;1.77;nan
23166;BME280;11751;42.700;24.170;2023-02-12T04:42:09;94638.50;;;1.81;nan
23166;BME280;11751;42.700;24.170;2023-02-12T04:44:38;94634.59;;;1.93;nan
23166;BME280;11751;42.700;24.170;2023-02-12T04:47:04;94611.53;;;1.96;nan
23166;BME280;11751;42.700;24.170;2023-02-12T04:49:29;94643.16;;;1.95;nan
23166;BME280;11751;42.700;24.170;2023-02-12T04:51:55;94607.34;;;1.75;nan
23166;BME280;11751;42.700;24.170;2023-02-12T04:54:21;94644.91;;;1.93;nan
23166;BME280;11751;42.700;24.170;2023-02-12T04:56:47;94667.47;;;1.91;nan
23166;BME280;11751;42.700;24.170;2023-02-12T04:59:13;94647.72;;;1.98;nan
23166;BME280;11751;42.700;24.170;2023-02-12T05:01:41;94651.50;;;2.01;nan
23166;BME280;11751;42.700;24.170;2023-02-12T05:04:07;94644.69;;;1.96;nan
23166;BME280;11751;42.700;24.170;2023-02-12T05:06:35;94664.38;;;2.09;nan
23166;BME280;11751;42.700;24.170;2023-02-12T05:09:00;94654.81;;;2.05;nan
23166;BME280;11751;42.700;24.170;2023-02-12T05:11:26;94667.41;;;2.11;nan
23166;BME280;11751;42.700;24.170;2023-02-12T05:13:52;94656.91;;;2.15;nan
23166;BME280;11751;42.700;24.170;2023-02-12T05:16:19;94670.22;;;2.17;nan
23166;BME280;11751;42.700;24.170;2023-02-12T05:18:45;94667.06;;;2.29;nan
23166;BME280;11751;42.700;24.170;2023-02-12T05:21:11;94664.25;;;2.24;nan
23166;BME280;11751;42.700;24.170;2023-02-12T05:23:38;94671.22;;;2.14;nan
23166;BME280;11751;42.700;24.170;2023-02-12T05:26:07;94675.84;;;2.02;nan
23166;BME280;11751;42.700;24.170;2023-02-12T05:28:33;94686.16;;;2.02;nan
23166;BME280;11751;42.700;24.170;2023-02-12T05:31:03;94675.00;;;1.91;nan
23166;BME280;11751;42.700;24.170;2023-02-12T05:33:28;94680.56;;;1.96;nan
23166;BME280;11751;42.700;24.170;2023-02-12T05:35:54;94683.00;;;1.89;nan
23166;BME280;11751;42.700;24.170;2023-02-12T05:38:20;94689.31;;;1.89;nan
23166;BME280;11751;42.700;24.170;2023-02-12T05:40:45;94681.81;;;1.95;nan
23166;BME280;11751;42.700;24.170;2023-02-12T05:43:11;94699.75;;;2.05;nan
23166;BME280;11751;42.700;24.170;2023-02-12T05:45:37;94713.44;;;1.94;nan
23166;BME280;11751;42.700;24.170;2023-02-12T05:48:05;94704.41;;;1.94;nan
23166;BME280;11751;42.700;24.170;2023-02-12T05:50:31;94709.22;;;1.99;nan
23166;BME280;11751;42.700;24.170;2023-02-12T05:52:59;94724.31;;;2.03;nan
23166;BME280;11751;42.700;24.170;2023-02-12T05:55:24;94716.03;;;2.03;nan
23166;BME280;11751;42.700;24.170;2023-02-12T05:57:50;94720.31;;;2.04;nan
23166;BME280;11751;42.700;24.170;2023-02-12T06:00:15;94726.13;;;2.06;nan
23166;BME280;11751;42.700;24.170;2023-02-12T06:02:41;94730.13;;;2.05;nan
23166;BME280;11751;42.700;24.170;2023-02-12T06:05:06;94719.41;;;2.13;nan
23166;BME280;11751;42.700;24.170;2023-02-12T06:07:32;94717.66;;;2.15;nan
23166;BME280;11751;42.700;24.170;2023-02-12T06:09:57;94736.59;;;2.02;nan
23166;BME280;11751;42.700;24.170;2023-02-12T06:12:23;94732.72;;;2.14;nan
23166;BME280;11751;42.700;24.170;2023-02-12T06:14:49;94732.28;;;2.21;nan
23166;BME280;11751;42.700;24.170;2023-02-12T06:17:14;94733.63;;;2.31;nan
23166;BME280;11751;42.700;24.170;2023-02-12T06:19:40;94731.97;;;2.39;nan
23166;BME280;11751;42.700;24.170;2023-02-12T06:22:05;94753.34;;;2.44;nan
23166;BME280;11751;42.700;24.170;2023-02-12T06:24:31;94746.03;;;2.41;nan
23166;BME280;11751;42.700;24.170;2023-02-12T06:26:56;94743.22;;;2.36;nan
23166;BME280;11751;42.700;24.170;2023-02-12T06:29:22;94743.41;;;2.57;nan
23166;BME280;11751;42.700;24.170;2023-02-12T06:31:48;94738.13;;;2.54;nan
23166;BME280;11751;42.700;24.170;2023-02-12T06:34:14;94763.00;;;2.54;nan
23166;BME280;11751;42.700;24.170;2023-02-12T06:36:44;94744.97;;;2.33;nan
23166;BME280;11751;42.700;24.170;2023-02-12T06:39:14;94743.09;;;2.50;nan
23166;BME280;11751;42.700;24.170;2023-02-12T06:41:40;94746.59;;;2.45;nan
23166;BME280;11751;42.700;24.170;2023-02-12T06:44:06;94749.41;;;2.51;nan
23166;BME280;11751;42.700;24.170;2023-02-12T06:46:33;94748.84;;;2.47;nan
23166;BME280;11751;42.700;24.170;2023-02-12T06:48:59;94770.53;;;2.28;nan
23166;BME280;11751;42.700;24.170;2023-02-12T06:51:26;94756.00;;;2.33;nan
23166;BME280;11751;42.700;24.170;2023-02-12T06:53:54;94763.94;;;2.20;nan
23166;BME280;11751;42.700;24.170;2023-02-12T06:56:21;94752.97;;;2.31;nan
23166;BME280;11751;42.700;24.170;2023-02-12T06:58:52;94755.09;;;2.16;nan
23166;BME280;11751;42.700;24.170;2023-02-12T07:01:23;94769.25;;;2.24;nan
23166;BME280;11751;42.700;24.170;2023-02-12T07:03:51;94759.69;;;2.50;nan
23166;BME280;11751;42.700;24.170;2023-02-12T07:06:17;94763.84;;;2.35;nan
23166;BME280;11751;42.700;24.170;2023-02-12T07:08:43;94770.59;;;2.34;nan
23166;BME280;11751;42.700;24.170;2023-02-12T07:11:09;94773.38;;;2.34;nan
23166;BME280;11751;42.700;24.170;2023-02-12T07:13:35;94772.69;;;2.44;nan
23166;BME280;11751;42.700;24.170;2023-02-12T07:16:05;94762.50;;;2.55;nan
23166;BME280;11751;42.700;24.170;2023-02-12T07:18:30;94751.25;;;2.59;nan
23166;BME280;11751;42.700;24.170;2023-02-12T07:20:56;94761.66;;;2.44;nan
23166;BME280;11751;42.700;24.170;2023-02-12T07:23:21;94750.88;;;2.21;nan
23166;BME280;11751;42.700;24.170;2023-02-12T07:25:57;94760.44;;;2.00;nan
23166;BME280;11751;42.700;24.170;2023-02-12T07:28:23;94760.66;;;1.96;nan
23166;BME280;11751;42.700;24.170;2023-02-12T07:30:48;94763.44;;;1.76;nan
23166;BME280;11751;42.700;24.170;2023-02-12T07:33:14;94755.81;;;1.91;nan
23166;BME280;11751;42.700;24.170;2023-02-12T07:35:39;94760.09;;;1.92;nan
23166;BME280;11751;42.700;24.170;2023-02-12T07:38:05;94763.00;;;1.83;nan
23166;BME280;11751;42.700;24.170;2023-02-12T07:40:30;94767.50;;;1.81;nan
23166;BME280;11751;42.700;24.170;2023-02-12T07:42:56;94770.97;;;1.76;nan
23166;BME280;11751;42.700;24.170;2023-02-12T07:45:21;94773.53;;;1.79;nan
23166;BME280;11751;42.700;24.170;2023-02-12T07:47:47;94774.22;;;1.55;nan
23166;BME280;11751;42.700;24.170;2023-02-12T07:50:12;94785.25;;;1.55;nan
23166;BME280;11751;42.700;24.170;2023-02-12T07:52:38;94777.09;;;1.66;nan
23166;BME280;11751;42.700;24.170;2023-02-12T07:55:03;94763.88;;;1.69;nan
23166;BME280;11751;42.700;24.170;2023-02-12T07:57:29;94760.53;;;1.85;nan
23166;BME280;11751;42.700;24.170;2023-02-12T07:59:54;94780.81;;;1.82;nan
23166;BME280;11751;42.700;24.170;2023-02-12T08:02:20;94787.63;;;2.07;nan
23166;BME280;11751;42.700;24.170;2023-02-12T08:04:45;94779.34;;;2.32;nan
23166;BME280;11751;42.700;24.170;2023-02-12T08:07:11;94786.34;;;2.53;nan
23166;BME280;11751;42.700;24.170;2023-02-12T08:09:36;94798.06;;;2.68;nan
23166;BME280;11751;42.700;24.170;2023-02-12T08:12:02;94802.19;;;2.78;nan
23166;BME280;11751;42.700;24.170;2023-02-12T08:14:27;94778.13;;;2.89;nan
23166;BME280;11751;42.700;24.170;2023-02-12T08:16:53;94805.00;;;2.89;nan
23166;BME280;11751;42.700;24.170;2023-02-12T08:19:18;94813.84;;;2.93;nan
23166;BME280;11751;42.700;24.170;2023-02-12T08:21:44;94799.84;;;3.02;nan
23166;BME280;11751;42.700;24.170;2023-02-12T08:24:11;94773.22;;;3.10;nan
23166;BME280;11751;42.700;24.170;2023-02-12T08:26:38;94783.94;;;2.91;nan
23166;BME280;11751;42.700;24.170;2023-02-12T08:29:09;94783.09;;;2.85;nan
23166;BME280;11751;42.700;24.170;2023-02-12T08:31:37;94777.84;;;2.87;nan
23166;BME280;11751;42.700;24.170;2023-02-12T08:34:04;94783.56;;;2.78;nan
23166;BME280;11751;42.700;24.170;2023-02-12T08:36:38;94788.25;;;2.98;nan
23166;BME280;11751;42.700;24.170;2023-02-12T08:39:05;94783.28;;;3.07;nan
23166;BME280;11751;42.700;24.170;2023-02-12T08:41:31;94778.47;;;3.02;nan
23166;BME280;11751;42.700;24.170;2023-02-12T08:43:58;94797.66;;;3.11;nan
23166;BME280;11751;42.700;24.170;2023-02-12T08:46:29;94803.41;;;3.08;nan
23166;BME280;11751;42.700;24.170;2023-02-12T08:48:59;94813.25;;;3.14;nan
23166;BME280;11751;42.700;24.170;2023-02-12T08:51:30;94828.75;;;3.32;nan
23166;BME280;11751;42.700;24.170;2023-02-12T08:54:02;94823.81;;;3.46;nan
23166;BME280;11751;42.700;24.170;2023-02-12T08:56:29;94828.91;;;3.53;nan
23166;BME280;11751;42.700;24.170;2023-02-12T08:58:56;94823.66;;;3.61;nan
23166;BME280;11751;42.700;24.170;2023-02-12T09:01:23;94830.91;;;3.58;nan
23166;BME280;11751;42.700;24.170;2023-02-12T09:03:49;94823.59;;;3.50;nan
23166;BME280;11751;42.700;24.170;2023-02-12T09:06:18;94823.63;;;3.55;nan
23166;BME280;11751;42.700;24.170;2023-02-12T09:08:44;94821.69;;;3.72;nan
23166;BME280;11751;42.700;24.170;2023-02-12T09:11:12;94820.97;;;3.77;nan
23166;BME280;11751;42.700;24.170;2023-02-12T09:13:38;94820.56;;;3.95;nan
23166;BME280;11751;42.700;24.170;2023-02-12T09:16:05;94818.81;;;3.98;nan
23166;BME280;11751;42.700;24.170;2023-02-12T09:18:32;94810.00;;;3.99;nan
23166;BME280;11751;42.700;24.170;2023-02-12T09:21:06;94819.84;;;4.06;nan
23166;BME280;11751;42.700;24.170;2023-02-12T09:23:32;94820.09;;;4.02;nan
23166;BME280;11751;42.700;24.170;2023-02-12T09:25:58;94818.59;;;4.07;nan
23166;BME280;11751;42.700;24.170;2023-02-12T09:28:23;94824.72;;;4.27;nan
23166;BME280;11751;42.700;24.170;2023-02-12T09:30:49;94815.91;;;4.23;nan
23166;BME280;11751;42.700;24.170;2023-02-12T09:33:15;94806.13;;;4.44;nan
23166;BME280;11751;42.700;24.170;2023-02-12T09:35:41;94811.50;;;4.00;nan
23166;BME280;11751;42.700;24.170;2023-02-12T09:38:06;94811.06;;;4.18;nan
23166;BME280;11751;42.700;24.170;2023-02-12T09:43:22;94842.53;;;4.04;nan
23166;BME280;11751;42.700;24.170;2023-02-12T09:51:13;94850.66;;;3.71;nan
23166;BME280;11751;42.700;24.170;2023-02-12T09:53:42;94855.66;;;3.67;nan
23166;BME280;11751;42.700;24.170;2023-02-12T09:56:21;94855.19;;;3.69;nan
23166;BME280;11751;42.700;24.170;2023-02-12T09:58:57;94854.94;;;3.72;nan
23166;BME280;11751;42.700;24.170;2023-02-12T10:01:23;94853.69;;;3.73;nan
23166;BME280;11751;42.700;24.170;2023-02-12T10:03:50;94848.34;;;3.64;nan
23166;BME280;11751;42.700;24.170;2023-02-12T10:06:20;94840.94;;;3.92;nan
23166;BME280;11751;42.700;24.170;2023-02-12T10:09:00;94848.47;;;3.86;nan
23166;BME280;11751;42.700;24.170;2023-02-12T10:22:59;94841.19;;;4.58;nan
23166;BME280;11751;42.700;24.170;2023-02-12T10:25:55;94868.44;;;4.70;nan
23166;BME280;11751;42.700;24.170;2023-02-12T10:28:32;94850.00;;;4.51;nan
23166;BME280;11751;42.700;24.170;2023-02-12T10:31:03;94843.03;;;4.83;nan
23166;BME280;11751;42.700;24.170;2023-02-12T10:33:39;94838.25;;;5.16;nan
23166;BME280;11751;42.700;24.170;2023-02-12T10:36:30;94850.09;;;4.95;nan
23166;BME280;11751;42.700;24.170;2023-02-12T10:41:54;94833.44;;;4.84;nan
23166;BME280;11751;42.700;24.170;2023-02-12T10:44:20;94843.50;;;4.76;nan
23166;BME280;11751;42.700;24.170;2023-02-12T10:46:46;94840.50;;;4.74;nan
23166;BME280;11751;42.700;24.170;2023-02-12T10:49:14;94829.91;;;4.94;nan
23166;BME280;11751;42.700;24.170;2023-02-12T10:52:14;94833.97;;;5.20;nan
23166;BME280;11751;42.700;24.170;2023-02-12T10:54:47;94838.25;;;5.16;nan
23166;BME280;11751;42.700;24.170;2023-02-12T10:57:17;94830.94;;;5.18;nan
23166;BME280;11751;42.700;24.170;2023-02-12T10:59:44;94836.47;;;5.02;nan
23166;BME280;11751;42.700;24.170;2023-02-12T11:04:43;94839.50;;;4.99;nan
23166;BME280;11751;42.700;24.170;2023-02-12T11:07:09;94836.75;;;5.04;nan
23166;BME280;11751;42.700;24.170;2023-02-12T11:09:45;94843.22;;;4.63;nan
23166;BME280;11751;42.700;24.170;2023-02-12T11:15:00;94833.88;;;4.55;nan
23166;BME280;11751;42.700;24.170;2023-02-12T11:17:33;94831.09;;;4.60;nan
23166;BME280;11751;42.700;24.170;2023-02-12T11:23:29;94841.44;;;4.60;nan
23166;BME280;11751;42.700;24.170;2023-02-12T11:26:22;94832.66;;;4.83;nan
23166;BME280;11751;42.700;24.170;2023-02-12T11:36:48;94850.09;;;5.16;nan
23166;BME280;11751;42.700;24.170;2023-02-12T11:39:32;94840.53;;;5.28;nan
23166;BME280;11751;42.700;24.170;2023-02-12T11:42:02;94855.16;;;5.40;nan
23166;BME280;11751;42.700;24.170;2023-02-12T11:44:36;94843.56;;;5.41;nan
23166;BME280;11751;42.700;24.170;2023-02-12T11:47:05;94855.41;;;5.36;nan
23166;BME280;11751;42.700;24.170;2023-02-12T11:49:37;94823.88;;;5.28;nan
23166;BME280;11751;42.700;24.170;2023-02-12T11:52:05;94835.97;;;5.47;nan
23166;BME280;11751;42.700;24.170;2023-02-12T11:54:39;94845.53;;;5.74;nan
23166;BME280;11751;42.700;24.170;2023-02-12T11:57:05;94854.13;;;5.70;nan
23166;BME280;11751;42.700;24.170;2023-02-12T11:59:36;94844.28;;;5.75;nan
23166;BME280;11751;42.700;24.170;2023-02-12T12:02:18;94845.81;;;5.76;nan
23166;BME280;11751;42.700;24.170;2023-02-12T12:04:49;94836.41;;;5.95;nan
23166;BME280;11751;42.700;24.170;2023-02-12T12:07:25;94841.63;;;6.26;nan
23166;BME280;11751;42.700;24.170;2023-02-12T12:10:00;94836.25;;;6.50;nan
23166;BME280;11751;42.700;24.170;2023-02-12T12:12:37;94836.66;;;6.65;nan
23166;BME280;11751;42.700;24.170;2023-02-12T12:15:15;94833.59;;;6.68;nan
23166;BME280;11751;42.700;24.170;2023-02-12T12:18:29;94844.47;;;6.66;nan
23166;BME280;11751;42.700;24.170;2023-02-12T12:21:25;94847.78;;;6.65;nan
23166;BME280;11751;42.700;24.170;2023-02-12T12:24:01;94853.84;;;6.69;nan
23166;BME280;11751;42.700;24.170;2023-02-12T12:26:30;94856.03;;;6.86;nan
23166;BME280;11751;42.700;24.170;2023-02-12T12:29:00;94862.06;;;6.90;nan
23166;BME280;11751;42.700;24.170;2023-02-12T12:31:34;94856.34;;;6.78;nan
23166;BME280;11751;42.700;24.170;2023-02-12T12:39:34;94864.69;;;6.10;nan
23166;BME280;11751;42.700;24.170;2023-02-12T12:45:01;94857.75;;;6.44;nan
23166;BME280;11751;42.700;24.170;2023-02-12T12:56:21;94866.75;;;6.66;nan
23166;BME280;11751;42.700;24.170;2023-02-12T13:06:55;94839.94;;;6.69;nan
23166;BME280;11751;42.700;24.170;2023-02-12T13:09:47;94873.94;;;6.96;nan
23166;BME280;11751;42.700;24.170;2023-02-12T13:15:32;94887.94;;;7.20;nan
23166;BME280;11751;42.700;24.170;2023-02-12T13:20:45;94890.50;;;7.18;nan
23166;BME280;11751;42.700;24.170;2023-02-12T13:23:16;94900.56;;;7.27;nan
23166;BME280;11751;42.700;24.170;2023-02-12T13:28:51;94899.34;;;7.22;nan
23166;BME280;11751;42.700;24.170;2023-02-12T13:31:21;94904.56;;;7.37;nan
23166;BME280;11751;42.700;24.170;2023-02-12T13:36:14;94896.84;;;7.54;nan
23166;BME280;11751;42.700;24.170;2023-02-12T13:38:48;94898.53;;;7.62;nan
23166;BME280;11751;42.700;24.170;2023-02-12T13:41:16;94895.84;;;7.51;nan
23166;BME280;11751;42.700;24.170;2023-02-12T13:49:31;94907.22;;;7.18;nan
23166;BME280;11751;42.700;24.170;2023-02-12T13:52:07;94909.63;;;7.38;nan
23166;BME280;11751;42.700;24.170;2023-02-12T13:57:19;94919.44;;;7.45;nan
23166;BME280;11751;42.700;24.170;2023-02-12T13:59:55;94918.44;;;7.42;nan
23166;BME280;11751;42.700;24.170;2023-02-12T14:05:19;94923.13;;;7.23;nan
23166;BME280;11751;42.700;24.170;2023-02-12T14:07:57;94922.59;;;7.25;nan
23166;BME280;11751;42.700;24.170;2023-02-12T14:10:39;94933.00;;;7.24;nan
23166;BME280;11751;42.700;24.170;2023-02-12T14:13:21;94935.19;;;7.37;nan
23166;BME280;11751;42.700;24.170;2023-02-12T14:15:53;94937.19;;;7.47;nan
23166;BME280;11751;42.700;24.170;2023-02-12T14:23:43;94954.44;;;7.40;nan
23166;BME280;11751;42.700;24.170;2023-02-12T14:26:22;94955.88;;;7.12;nan
23166;BME280;11751;42.700;24.170;2023-02-12T14:29:05;94960.03;;;6.83;nan
23166;BME280;11751;42.700;24.170;2023-02-12T14:31:39;94960.75;;;6.11;nan
23166;BME280;11751;42.700;24.170;2023-02-12T14:41:54;94977.78;;;5.05;nan
23166;BME280;11751;42.700;24.170;2023-02-12T14:49:32;94997.59;;;5.51;nan
23166;BME280;11751;42.700;24.170;2023-02-12T14:52:18;95011.69;;;5.31;nan
23166;BME280;11751;42.700;24.170;2023-02-12T14:54:58;95011.84;;;5.01;nan
23166;BME280;11751;42.700;24.170;2023-02-12T14:57:38;95009.56;;;4.99;nan
23166;BME280;11751;42.700;24.170;2023-02-12T15:05:30;95037.38;;;5.15;nan
23166;BME280;11751;42.700;24.170;2023-02-12T15:08:14;95044.22;;;5.31;nan
23166;BME280;11751;42.700;24.170;2023-02-12T15:10:48;95037.97;;;5.41;nan
23166;BME280;11751;42.700;24.170;2023-02-12T15:13:41;95056.13;;;5.31;nan
23166;BME280;11751;42.700;24.170;2023-02-12T15:18:46;95059.63;;;5.26;nan
23166;BME280;11751;42.700;24.170;2023-02-12T15:21:20;95056.38;;;5.39;nan
23166;BME280;11751;42.700;24.170;2023-02-12T15:23:59;95074.72;;;5.14;nan
23166;BME280;11751;42.700;24.170;2023-02-12T15:26:26;95074.19;;;5.10;nan
23166;BME280;11751;42.700;24.170;2023-02-12T15:28:52;95084.44;;;4.88;nan
23166;BME280;11751;42.700;24.170;2023-02-12T15:31:21;95084.97;;;4.98;nan
23166;BME280;11751;42.700;24.170;2023-02-12T15:33:51;95090.00;;;4.88;nan
23166;BME280;11751;42.700;24.170;2023-02-12T15:36:23;95091.78;;;4.97;nan
23166;BME280;11751;42.700;24.170;2023-02-12T15:38:55;95106.34;;;4.81;nan
23166;BME280;11751;42.700;24.170;2023-02-12T15:43:52;95106.84;;;4.85;nan
23166;BME280;11751;42.700;24.170;2023-02-12T15:46:19;95113.63;;;4.42;nan
23166;BME280;11751;42.700;24.170;2023-02-12T15:48:45;95109.44;;;4.52;nan
23166;BME280;11751;42.700;24.170;2023-02-12T15:51:15;95119.03;;;4.56;nan
23166;BME280;11751;42.700;24.170;2023-02-12T15:53:42;95115.06;;;4.32;nan
23166;BME280;11751;42.700;24.170;2023-02-12T15:56:15;95132.34;;;4.21;nan
23166;BME280;11751;42.700;24.170;2023-02-12T16:01:18;95140.38;;;4.14;nan
23166;BME280;11751;42.700;24.170;2023-02-12T16:03:49;95144.78;;;4.01;nan
23166;BME280;11751;42.700;24.170;2023-02-12T16:06:17;95153.06;;;3.95;nan
23166;BME280;11751;42.700;24.170;2023-02-12T16:09:08;95149.03;;;3.71;nan
23166;BME280;11751;42.700;24.170;2023-02-12T16:11:37;95153.16;;;3.81;nan
23166;BME280;11751;42.700;24.170;2023-02-12T16:14:19;95166.50;;;3.82;nan
23166;BME280;11751;42.700;24.170;2023-02-12T16:16:48;95168.25;;;4.05;nan